Latest Weather Observations for Dwellingup

IDW60801

Issued at 8:04 am WST Tuesday 27 September 2016 (issued every 30 minutes, with the page automatically refreshed every 10 minutes)

About weather observations | Map of weather stations | Latest weather observations for WA | Other Formats
Station Details ID: 009538 Name: DWELLINGUP Lat: -32.71 Lon: 116.06 Height: 267.0 m
Data from the previous 72 hours. | See also: Recent months at Dwellingup
Date/Time
WST
Temp
°C
App
Temp
°C
Dew
Point
°C
Rel
Hum
%
Delta-T
°C
Wind Press
QNH
hPa
Press
MSL
hPa
Rain since
9am
mm
Dir  Spd
km/h
Gust
km/h
Spd
kts
Gust
kts
27/08:00am 11.9 7.6 10.6 92 0.7 NW 24 43 13 23 1012.6 1012.6 12.8
27/07:30am 11.8 10.0 10.7 93 0.6 NW 11 20 6 11 1012.6 1012.6 12.0
27/07:00am 11.6 8.6 10.5 93 0.6 WNW 17 26 9 14 1012.9 1012.9 11.2
27/06:30am 11.2 8.0 10.1 93 0.6 NW 17 30 9 16 1013.0 1013.0 11.2
27/06:00am 11.1 8.3 10.0 93 0.6 NW 15 26 8 14 1013.3 1013.3 11.2
27/05:30am 11.2 7.7 10.3 94 0.5 WNW 19 32 10 17 1013.6 1013.6 11.0
27/05:00am 11.5 9.2 10.6 94 0.5 NW 13 22 7 12 1013.7 1013.7 10.2
27/04:30am 11.2 8.8 10.1 93 0.6 NW 13 22 7 12 1013.9 1013.9 9.4
27/04:00am 11.1 8.7 10.2 94 0.5 NW 13 24 7 13 1014.0 1014.0 9.4
27/03:30am 10.9 8.4 9.8 93 0.6 NW 13 20 7 11 1014.4 1014.4 9.4
27/03:00am 10.8 9.1 9.7 93 0.6 NW 9 15 5 8 1014.8 1014.8 9.4
27/02:30am 10.8 8.3 9.7 93 0.6 NW 13 22 7 12 1015.2 1015.2 9.4
27/02:00am 10.9 8.5 10.0 94 0.5 NW 13 28 7 15 1015.7 1015.6 8.8
27/01:30am 11.2 8.5 10.3 94 0.5 W 15 26 8 14 1016.1 1016.1 7.6
27/01:00am 11.5 9.2 10.4 93 0.6 W 13 22 7 12 1016.3 1016.3 6.6
27/12:30am 11.4 9.1 10.3 93 0.6 NW 13 26 7 14 1016.5 1016.5 5.2
27/12:00am 11.3 9.3 10.0 92 0.7 NW 11 17 6 9 1016.8 1016.8 5.0
 
Date/Time
WST
Temp
°C
App
Temp
°C
Dew
Point
°C
Rel
Hum
%
Delta-T
°C
Wind Press
QNH
hPa
Press
MSL
hPa
Rain since
9am
mm
Dir  Spd
km/h
Gust
km/h
Spd
kts
Gust
kts
26/11:30pm 11.1 9.4 9.9 92 0.6 NW 9 15 5 8 1017.2 1017.2 5.0
26/11:00pm 11.1 9.0 9.9 92 0.6 NW 11 22 6 12 1017.6 1017.6 5.0
26/10:30pm 11.5 9.5 10.1 91 0.7 WNW 11 20 6 11 1017.8 1017.8 5.0
26/10:00pm 11.5 9.8 9.9 90 0.8 WNW 9 17 5 9 1018.0 1018.0 4.8
26/09:30pm 11.5 9.4 9.9 90 0.8 NW 11 17 6 9 1018.2 1018.2 4.8
26/09:00pm 11.1 9.0 9.9 92 0.6 NW 11 15 6 8 1018.2 1018.2 4.8
26/08:30pm 10.9 9.2 9.7 92 0.6 NW 9 13 5 7 1018.2 1018.2 4.6
26/08:00pm 11.1 9.3 9.5 90 0.8 NW 9 15 5 8 1018.2 1018.2 4.6
26/07:30pm 11.4 9.7 9.7 89 0.9 WNW 9 15 5 8 1018.0 1018.0 4.6
26/07:00pm 11.6 9.9 9.7 88 1.0 WNW 9 15 5 8 1018.0 1018.0 4.6
26/06:30pm 11.8 9.7 9.9 88 1.0 WNW 11 20 6 11 1017.8 1017.8 4.6
26/06:00pm 12.4 10.4 10.0 85 1.2 W 11 19 6 10 1017.8 1017.8 4.6
26/05:30pm 12.8 10.9 10.5 86 1.2 W 11 19 6 10 1017.8 1017.8 4.2
26/05:00pm 12.8 10.5 10.5 86 1.2 W 13 32 7 17 1017.9 1017.9 4.2
26/04:30pm 12.6 9.8 11.2 91 0.7 WNW 17 33 9 18 1017.8 1017.8 4.2
26/04:00pm 12.6 9.3 11.0 90 0.8 WNW 19 32 10 17 1017.7 1017.7 4.0
26/03:30pm 12.6 9.7 11.0 90 0.8 WNW 17 32 9 17 1017.8 1017.8 1.6
26/03:00pm 12.9 9.8 10.4 85 1.3 NW 17 28 9 15 1017.8 1017.8 1.0
26/02:30pm 12.6 9.0 10.5 87 1.1 NW 20 32 11 17 1017.9 1017.9 1.0
26/02:00pm 12.7 10.0 10.4 86 1.2 NW 15 33 8 18 1018.0 1018.0 0.8
26/01:30pm 12.3 8.8 10.2 87 1.1 NW 19 30 10 16 1018.2 1018.2 0.8
26/01:00pm 12.1 8.8 9.7 85 1.2 NW 17 28 9 15 1018.6 1018.6 0.8
26/12:30pm 11.7 8.4 9.6 87 1.1 WNW 17 30 9 16 1019.0 1019.1 0.6
26/12:00pm 12.9 9.2 8.0 72 2.4 NW 17 37 9 20 1019.0 1019.1 0.2
26/11:30am 12.9 9.6 8.0 72 2.5 NW 15 28 8 15 1019.2 1019.3 0.2
26/11:00am 11.7 8.9 8.7 82 1.5 NW 13 24 7 13 1019.5 1019.6 0.2
26/10:30am 11.6 9.6 8.6 82 1.5 NW 9 17 5 9 1019.8 1019.8 0.2
26/10:00am 10.8 7.9 8.0 83 1.4 NW 13 20 7 11 1020.3 1020.3 0.2
26/09:30am 11.9 8.3 6.8 71 2.5 NW 15 30 8 16 1020.0 1020.0 0.0
26/09:00am 11.9 8.3 6.6 70 2.5 NW 15 20 8 11 1019.8 1019.8 0.2
26/08:30am 11.2 8.4 6.9 75 2.1 WNW 11 19 6 10 1019.8 1019.8 0.2
26/08:00am 9.9 6.7 6.8 81 1.5 NW 13 26 7 14 1019.8 1019.8 0.2
26/07:30am 8.8 5.7 7.1 89 0.8 WNW 13 24 7 13 1019.7 1019.7 0.2
26/07:00am 5.8 2.2 4.9 94 0.4 WNW 13 22 7 12 1019.4 1019.5 0.2
26/06:30am 3.7 -0.7 2.7 93 0.4 WNW 15 24 8 13 1019.2 1019.3 0.2
26/06:00am 3.4 -1.1 2.4 93 0.4 WNW 15 22 8 12 1019.0 1019.1 0.2
26/05:30am 4.0 0.0 3.0 93 0.4 WNW 13 19 7 10 1018.9 1019.0 0.2
26/05:00am 4.1 0.5 3.2 94 0.4 NW 11 17 6 9 1019.0 1019.1 0.2
26/04:30am 3.4 -0.3 2.4 93 0.4 WNW 11 17 6 9 1019.1 1019.2 0.2
26/04:00am 2.9 -0.9 1.9 93 0.4 NW 11 13 6 7 1019.0 1019.1 0.2
26/03:30am 3.2 -0.1 2.2 93 0.4 NW 9 13 5 7 1019.3 1019.4 0.2
26/03:00am 3.1 -0.3 1.9 92 0.5 WNW 9 13 5 7 1019.4 1019.5 0.2
26/02:30am 3.4 0.1 2.2 92 0.5 W 9 11 5 6 1019.2 1019.3 0.2
26/02:00am 3.8 0.1 2.6 92 0.5 WSW 11 13 6 7 1019.5 1019.6 0.2
26/01:30am 3.9 0.3 2.7 92 0.5 WSW 11 15 6 8 1020.0 1020.0 0.2
26/01:00am 4.1 1.2 2.8 91 0.5 WSW 7 9 4 5 1019.8 1019.8 0.2
26/12:30am 4.6 1.4 3.3 91 0.5 SSW 9 13 5 7 1020.0 1020.0 0.2
26/12:00am 4.8 1.3 3.3 90 0.6 SW 11 15 6 8 1020.4 1020.4 0.2
 
Date/Time
WST
Temp
°C
App
Temp
°C
Dew
Point
°C
Rel
Hum
%
Delta-T
°C
Wind Press
QNH
hPa
Press
MSL
hPa
Rain since
9am
mm
Dir  Spd
km/h
Gust
km/h
Spd
kts
Gust
kts
25/11:30pm 5.2 1.7 3.7 90 0.6 SSW 11 13 6 7 1020.5 1020.5 0.2
25/11:00pm 5.4 1.6 3.7 89 0.7 SSW 13 19 7 10 1020.6 1020.6 0.2
25/10:30pm 5.8 2.4 3.8 87 0.9 SSW 11 19 6 10 1020.5 1020.5 0.2
25/10:00pm 6.5 3.1 4.2 85 1.0 SSW 11 19 6 10 1020.7 1020.7 0.2
25/09:30pm 7.5 3.4 4.5 81 1.3 SSW 15 26 8 14 1020.8 1020.8 0.2
25/09:00pm 8.1 3.7 4.5 78 1.6 SSW 17 28 9 15 1020.8 1020.8 0.2
25/08:30pm 8.6 4.2 4.8 77 1.7 SW 17 24 9 13 1020.8 1020.8 0.2
25/08:00pm 8.7 3.8 4.1 73 2.0 SW 19 30 10 16 1020.7 1020.7 0.2
25/07:30pm 9.2 4.7 4.0 70 2.3 SW 17 26 9 14 1020.4 1020.4 0.2
25/07:00pm 9.6 4.9 3.4 65 2.7 SW 17 28 9 15 1020.1 1020.1 0.2
25/06:30pm 10.2 5.3 2.3 58 3.4 SW 17 28 9 15 1019.8 1019.8 0.2
25/06:00pm 11.1 6.1 1.6 52 4.1 SW 17 30 9 16 1019.5 1019.6 0.2
25/05:30pm 12.2 7.6 1.8 49 4.5 SW 15 26 8 14 1019.1 1019.2 0.2
25/05:00pm 12.8 8.4 2.9 51 4.4 SW 15 24 8 13 1018.8 1018.8 0.2
25/04:30pm 13.1 8.7 2.6 49 4.7 SW 15 28 8 15 1018.5 1018.5 0.2
25/04:00pm 13.8 9.5 3.3 49 4.8 SW 15 30 8 16 1018.2 1018.2 0.2
25/03:30pm 14.3 9.4 1.9 43 5.5 SW 17 32 9 17 1017.8 1017.8 0.2
25/03:00pm 14.5 9.4 3.0 46 5.2 WSW 19 32 10 17 1017.6 1017.6 0.2
25/02:30pm 15.1 11.9 0.5 37 6.3 WSW 7 17 4 9 1017.5 1017.5 0.2
25/02:00pm 14.7 10.3 0.2 37 6.2 S 13 19 7 10 1017.4 1017.4 0.2
25/01:30pm 14.4 9.9 -0.5 36 6.3 S 13 24 7 13 1017.7 1017.7 0.2
25/01:00pm 13.6 9.1 -0.4 38 5.9 S 13 19 7 10 1017.8 1017.8 0.2
25/12:30pm 13.4 8.9 -0.3 39 5.7 S 13 24 7 13 1018.2 1018.2 0.2
25/12:00pm 12.4 8.6 2.0 49 4.5 S 11 22 6 12 1018.4 1018.4 0.2
25/11:30am 13.0 9.0 3.1 51 4.5 SSW 13 22 7 12 1018.5 1018.5 0.2
25/11:00am 11.8 7.3 2.0 51 4.3 SSE 15 26 8 14 1018.4 1018.4 0.2
25/10:30am 11.1 7.0 2.4 55 3.8 SSE 13 20 7 11 1018.5 1018.5 0.2
25/10:00am 11.0 6.1 2.3 55 3.8 SSE 17 26 9 14 1018.4 1018.4 0.0
25/09:30am 10.6 5.4 2.2 56 3.6 SSE 19 28 10 15 1018.3 1018.3 0.0
25/09:00am 9.9 4.9 3.4 64 2.9 SSE 19 33 10 18 1018.0 1018.0 5.8
25/08:30am 9.1 3.3 4.3 72 2.1 SSE 24 37 13 20 1017.9 1017.9 5.8
25/08:00am 8.4 3.6 4.4 76 1.8 SSE 19 32 10 17 1017.7 1017.7 5.8
25/07:30am 7.8 3.4 4.7 81 1.4 SSE 17 33 9 18 1017.3 1017.3 5.8
25/07:00am 7.7 3.1 5.5 86 1.0 SSE 19 30 10 16 1016.9 1016.9 5.8
25/06:30am 7.6 3.9 6.1 90 0.7 SSE 15 24 8 13 1016.6 1016.6 5.8
25/06:00am 7.7 3.0 6.2 90 0.7 SSE 20 32 11 17 1016.0 1016.0 5.8
25/05:30am 8.0 5.6 7.1 94 0.4 S 9 13 5 7 1015.5 1015.5 5.8
25/05:00am 7.8 4.3 7.1 95 0.3 S 15 26 8 14 1015.0 1015.0 5.8
25/04:30am 7.3 6.1 6.4 94 0.4 SW 2 7 1 4 1014.5 1014.5 5.2
25/04:00am 7.1 6.2 6.2 94 0.4 CALM 0 0 0 0 1014.1 1014.1 5.2
25/03:30am 6.9 4.3 6.0 94 0.4 WNW 9 11 5 6 1013.9 1013.9 5.2
25/03:00am 6.8 4.5 5.7 93 0.5 NNW 7 9 4 5 1013.7 1013.7 5.2
25/02:30am 7.1 4.9 6.0 93 0.5 N 7 9 4 5 1013.7 1013.7 5.2
25/02:00am 7.7 5.6 6.8 94 0.4 WNW 7 9 4 5 1013.7 1013.7 5.2
25/01:30am 8.3 6.4 7.4 94 0.4 NW 7 11 4 6 1013.8 1013.8 5.2
25/01:00am 8.4 6.1 7.5 94 0.4 NNW 9 13 5 7 1013.9 1013.9 4.8
25/12:30am 8.3 6.3 7.2 93 0.5 WNW 7 9 4 5 1014.0 1014.0 3.6
25/12:00am 8.0 5.2 6.9 93 0.5 SW 11 19 6 10 1014.4 1014.4 1.6
 
Date/Time
WST
Temp
°C
App
Temp
°C
Dew
Point
°C
Rel
Hum
%
Delta-T
°C
Wind Press
QNH
hPa
Press
MSL
hPa
Rain since
9am
mm
Dir  Spd
km/h
Gust
km/h
Spd
kts
Gust
kts
24/11:30pm 7.8 4.9 6.6 92 0.6 NNW 11 15 6 8 1014.2 1014.2 0.4
24/11:00pm 7.9 4.6 6.5 91 0.7 N 13 17 7 9 1014.0 1014.0 0.4
24/10:30pm 8.3 5.5 6.9 91 0.7 N 11 17 6 9 1014.2 1014.2 0.2
24/10:00pm 8.5 6.1 6.8 89 0.8 N 9 13 5 7 1014.4 1014.4 0.2
24/09:30pm 8.8 6.0 7.1 89 0.8 NNW 11 15 6 8 1014.6 1014.6 0.2
24/09:00pm 9.1 6.0 7.2 88 0.9 NNW 13 19 7 10 1014.7 1014.7 0.2
24/08:30pm 9.0 6.1 6.3 83 1.3 NW 11 13 6 7 1014.6 1014.6 0.2
24/08:00pm 9.1 6.1 6.0 81 1.4 NNW 11 17 6 9 1014.5 1014.5 0.2
24/07:30pm 8.9 5.8 5.6 80 1.5 NNW 11 15 6 8 1014.5 1014.5 0.2
24/07:00pm 9.5 6.4 5.7 77 1.8 NNW 11 15 6 8 1014.4 1014.4 0.2
24/06:30pm 10.1 7.4 5.5 73 2.1 NW 9 13 5 7 1014.3 1014.3 0.2
24/06:00pm 10.6 7.7 4.9 68 2.6 NW 9 15 5 8 1014.2 1014.2 0.2
24/05:30pm 11.4 7.9 5.3 66 2.8 NW 13 28 7 15 1014.1 1014.1 0.2
24/05:00pm 12.3 8.9 5.7 64 3.1 WNW 13 26 7 14 1013.9 1013.9 0.2
24/04:30pm 12.1 7.9 5.5 64 3.1 WNW 17 32 9 17 1014.0 1014.0 0.2
24/04:00pm 11.9 8.0 5.3 64 3.1 NW 15 32 8 17 1013.9 1013.9 0.2
24/03:30pm 12.0 8.2 5.6 65 3.0 NW 15 24 8 13 1014.0 1014.0 0.2
24/03:00pm 10.5 6.8 6.3 75 2.0 NW 15 28 8 15 1014.4 1014.4 0.2
24/02:30pm 11.2 6.7 5.9 70 2.5 NW 19 32 10 17 1014.4 1014.4 0.2
24/02:00pm 11.6 7.3 5.3 65 2.9 NW 17 32 9 17 1014.5 1014.5 0.2
24/01:30pm 11.9 7.6 5.3 64 3.1 NW 17 26 9 14 1014.8 1014.8 0.2
24/01:00pm 12.5 8.9 5.0 60 3.5 NNW 13 28 7 15 1015.2 1015.2 0.2
24/12:30pm 11.9 7.5 4.6 61 3.4 NW 17 28 9 15 1015.8 1015.8 0.2
24/12:00pm 11.5 7.8 4.7 63 3.1 NNW 13 26 7 14 1016.3 1016.3 0.2
24/11:30am 11.9 7.7 3.9 58 3.6 NW 15 28 8 15 1016.5 1016.5 0.2
24/11:00am 12.3 8.7 3.0 53 4.1 NNW 11 26 6 14 1016.7 1016.7 0.2
24/10:30am 11.7 8.1 3.0 55 3.9 NW 11 26 6 14 1016.9 1016.9 0.2
24/10:00am 11.5 7.5 3.0 56 3.8 NW 13 26 7 14 1017.1 1017.1 0.0
24/09:30am 10.6 7.2 3.9 63 3.0 NW 11 19 6 10 1017.3 1017.3 0.0
24/09:00am 8.8 6.2 4.2 73 2.0 N 7 11 4 6 1017.5 1017.5 2.4
24/08:30am 7.3 5.3 4.4 82 1.3 NE 4 9 2 5 1017.6 1017.6 2.4

Other Formats:

Comma delimited format used in spreadsheet applications
http://www.bom.gov.au/fwo/IDW60801/IDW60801.94620.axf

JavaScript Object Notation format (JSON) in row-major order
http://www.bom.gov.au/fwo/IDW60801/IDW60801.94620.json